sensor_id;sensor_type;location;lat;lon;timestamp;P1;durP1;ratioP1;P2;durP2;ratioP2
13866;SDS011;7003;46.982;15.248;2024-02-21T00:00:25;0.70;;;0.43;;
13866;SDS011;7003;46.982;15.248;2024-02-21T00:02:52;0.63;;;0.40;;
13866;SDS011;7003;46.982;15.248;2024-02-21T00:05:19;3.00;;;1.13;;
13866;SDS011;7003;46.982;15.248;2024-02-21T00:07:46;0.70;;;0.70;;
13866;SDS011;7003;46.982;15.248;2024-02-21T00:10:15;0.80;;;0.80;;
13866;SDS011;7003;46.982;15.248;2024-02-21T00:12:42;4.10;;;0.90;;
13866;SDS011;7003;46.982;15.248;2024-02-21T00:15:10;1.93;;;0.97;;
13866;SDS011;7003;46.982;15.248;2024-02-21T00:17:37;0.60;;;0.20;;
13866;SDS011;7003;46.982;15.248;2024-02-21T00:20:05;5.13;;;0.87;;
13866;SDS011;7003;46.982;15.248;2024-02-21T00:22:33;1.97;;;0.70;;
13866;SDS011;7003;46.982;15.248;2024-02-21T00:25:00;3.43;;;1.47;;
13866;SDS011;7003;46.982;15.248;2024-02-21T00:27:29;0.67;;;0.60;;
13866;SDS011;7003;46.982;15.248;2024-02-21T00:29:56;1.23;;;1.13;;
13866;SDS011;7003;46.982;15.248;2024-02-21T00:32:26;1.13;;;1.00;;
13866;SDS011;7003;46.982;15.248;2024-02-21T00:34:55;0.73;;;0.73;;
13866;SDS011;7003;46.982;15.248;2024-02-21T00:37:25;0.13;;;0.13;;
13866;SDS011;7003;46.982;15.248;2024-02-21T00:39:53;0.50;;;0.33;;
13866;SDS011;7003;46.982;15.248;2024-02-21T00:42:23;1.10;;;1.00;;
13866;SDS011;7003;46.982;15.248;2024-02-21T00:44:53;0.33;;;0.20;;
13866;SDS011;7003;46.982;15.248;2024-02-21T00:47:20;0.73;;;0.73;;
13866;SDS011;7003;46.982;15.248;2024-02-21T00:49:50;1.10;;;1.03;;
13866;SDS011;7003;46.982;15.248;2024-02-21T00:52:17;0.83;;;0.83;;
13866;SDS011;7003;46.982;15.248;2024-02-21T00:54:46;1.20;;;1.10;;
13866;SDS011;7003;46.982;15.248;2024-02-21T00:57:14;0.20;;;0.20;;
13866;SDS011;7003;46.982;15.248;2024-02-21T00:59:41;2.30;;;1.53;;
13866;SDS011;7003;46.982;15.248;2024-02-21T01:02:12;0.60;;;0.60;;
13866;SDS011;7003;46.982;15.248;2024-02-21T01:04:43;1.50;;;0.67;;
13866;SDS011;7003;46.982;15.248;2024-02-21T01:07:12;1.10;;;0.50;;
13866;SDS011;7003;46.982;15.248;2024-02-21T01:09:45;0.30;;;0.30;;
13866;SDS011;7003;46.982;15.248;2024-02-21T01:12:21;0.63;;;0.50;;
13866;SDS011;7003;46.982;15.248;2024-02-21T01:14:49;5.00;;;0.83;;
13866;SDS011;7003;46.982;15.248;2024-02-21T01:17:18;0.50;;;0.50;;
13866;SDS011;7003;46.982;15.248;2024-02-21T01:19:46;0.93;;;0.73;;
13866;SDS011;7003;46.982;15.248;2024-02-21T01:22:14;0.93;;;0.87;;
13866;SDS011;7003;46.982;15.248;2024-02-21T01:24:43;0.77;;;0.70;;
13866;SDS011;7003;46.982;15.248;2024-02-21T01:27:10;0.63;;;0.63;;
13866;SDS011;7003;46.982;15.248;2024-02-21T01:29:37;0.23;;;0.23;;
13866;SDS011;7003;46.982;15.248;2024-02-21T01:32:05;0.50;;;0.40;;
13866;SDS011;7003;46.982;15.248;2024-02-21T01:34:37;1.50;;;0.40;;
13866;SDS011;7003;46.982;15.248;2024-02-21T01:37:04;0.83;;;0.83;;
13866;SDS011;7003;46.982;15.248;2024-02-21T01:39:35;1.30;;;1.00;;
13866;SDS011;7003;46.982;15.248;2024-02-21T01:42:06;1.33;;;1.10;;
13866;SDS011;7003;46.982;15.248;2024-02-21T01:44:35;1.43;;;1.00;;
13866;SDS011;7003;46.982;15.248;2024-02-21T01:47:03;0.40;;;0.40;;
13866;SDS011;7003;46.982;15.248;2024-02-21T01:49:30;0.13;;;0.13;;
13866;SDS011;7003;46.982;15.248;2024-02-21T01:51:59;0.30;;;0.30;;
13866;SDS011;7003;46.982;15.248;2024-02-21T01:54:30;0.43;;;0.37;;
13866;SDS011;7003;46.982;15.248;2024-02-21T01:57:00;0.50;;;0.47;;
13866;SDS011;7003;46.982;15.248;2024-02-21T01:59:28;1.00;;;0.70;;
13866;SDS011;7003;46.982;15.248;2024-02-21T02:01:57;0.23;;;0.23;;
13866;SDS011;7003;46.982;15.248;2024-02-21T02:04:25;0.30;;;0.30;;
13866;SDS011;7003;46.982;15.248;2024-02-21T02:06:54;2.37;;;0.97;;
13866;SDS011;7003;46.982;15.248;2024-02-21T02:09:26;1.83;;;1.07;;
13866;SDS011;7003;46.982;15.248;2024-02-21T02:11:53;0.90;;;0.90;;
13866;SDS011;7003;46.982;15.248;2024-02-21T02:14:20;1.53;;;1.13;;
13866;SDS011;7003;46.982;15.248;2024-02-21T02:16:49;0.90;;;0.90;;
13866;SDS011;7003;46.982;15.248;2024-02-21T02:19:16;0.70;;;0.60;;
13866;SDS011;7003;46.982;15.248;2024-02-21T02:21:46;2.30;;;0.57;;
13866;SDS011;7003;46.982;15.248;2024-02-21T02:24:24;0.20;;;0.20;;
13866;SDS011;7003;46.982;15.248;2024-02-21T02:26:51;0.20;;;0.20;;
13866;SDS011;7003;46.982;15.248;2024-02-21T02:29:22;0.50;;;0.40;;
13866;SDS011;7003;46.982;15.248;2024-02-21T02:31:50;0.73;;;0.63;;
13866;SDS011;7003;46.982;15.248;2024-02-21T02:34:17;0.97;;;0.77;;
13866;SDS011;7003;46.982;15.248;2024-02-21T02:36:47;1.03;;;1.03;;
13866;SDS011;7003;46.982;15.248;2024-02-21T02:39:16;0.53;;;0.53;;
13866;SDS011;7003;46.982;15.248;2024-02-21T02:41:47;2.40;;;0.37;;
13866;SDS011;7003;46.982;15.248;2024-02-21T02:44:14;1.40;;;0.63;;
13866;SDS011;7003;46.982;15.248;2024-02-21T02:46:46;0.57;;;0.57;;
13866;SDS011;7003;46.982;15.248;2024-02-21T02:49:15;0.63;;;0.57;;
13866;SDS011;7003;46.982;15.248;2024-02-21T02:51:42;0.50;;;0.50;;
13866;SDS011;7003;46.982;15.248;2024-02-21T02:54:09;1.13;;;0.70;;
13866;SDS011;7003;46.982;15.248;2024-02-21T02:56:37;1.43;;;0.67;;
13866;SDS011;7003;46.982;15.248;2024-02-21T02:59:08;0.63;;;0.63;;
13866;SDS011;7003;46.982;15.248;2024-02-21T03:01:35;0.50;;;0.50;;
13866;SDS011;7003;46.982;15.248;2024-02-21T03:04:07;0.40;;;0.40;;
13866;SDS011;7003;46.982;15.248;2024-02-21T03:06:34;1.37;;;0.60;;
13866;SDS011;7003;46.982;15.248;2024-02-21T03:09:04;0.97;;;0.60;;
13866;SDS011;7003;46.982;15.248;2024-02-21T03:11:36;0.77;;;0.77;;
13866;SDS011;7003;46.982;15.248;2024-02-21T03:14:08;1.27;;;0.73;;
13866;SDS011;7003;46.982;15.248;2024-02-21T03:16:40;1.70;;;0.77;;
13866;SDS011;7003;46.982;15.248;2024-02-21T03:19:08;2.50;;;0.77;;
13866;SDS011;7003;46.982;15.248;2024-02-21T03:21:37;3.10;;;1.13;;
13866;SDS011;7003;46.982;15.248;2024-02-21T03:24:05;0.63;;;0.60;;
13866;SDS011;7003;46.982;15.248;2024-02-21T03:26:36;0.20;;;0.20;;
13866;SDS011;7003;46.982;15.248;2024-02-21T03:29:07;1.13;;;1.03;;
13866;SDS011;7003;46.982;15.248;2024-02-21T03:31:36;0.97;;;0.87;;
13866;SDS011;7003;46.982;15.248;2024-02-21T03:34:05;3.30;;;0.93;;
13866;SDS011;7003;46.982;15.248;2024-02-21T03:36:32;0.10;;;0.10;;
13866;SDS011;7003;46.982;15.248;2024-02-21T03:38:59;2.63;;;0.90;;
13866;SDS011;7003;46.982;15.248;2024-02-21T03:41:27;0.77;;;0.77;;
13866;SDS011;7003;46.982;15.248;2024-02-21T03:43:54;0.80;;;0.67;;
13866;SDS011;7003;46.982;15.248;2024-02-21T03:46:25;2.03;;;1.03;;
13866;SDS011;7003;46.982;15.248;2024-02-21T03:48:55;1.03;;;1.00;;
13866;SDS011;7003;46.982;15.248;2024-02-21T03:51:25;7.57;;;1.23;;
13866;SDS011;7003;46.982;15.248;2024-02-21T03:53:54;2.03;;;1.00;;
13866;SDS011;7003;46.982;15.248;2024-02-21T03:56:21;4.93;;;1.13;;
13866;SDS011;7003;46.982;15.248;2024-02-21T03:58:49;0.97;;;0.97;;
13866;SDS011;7003;46.982;15.248;2024-02-21T04:01:17;1.20;;;1.10;;
13866;SDS011;7003;46.982;15.248;2024-02-21T04:03:48;3.63;;;1.67;;
13866;SDS011;7003;46.982;15.248;2024-02-21T04:06:15;2.00;;;1.67;;
13866;SDS011;7003;46.982;15.248;2024-02-21T04:08:44;1.20;;;1.10;;
13866;SDS011;7003;46.982;15.248;2024-02-21T04:11:12;0.70;;;0.60;;
13866;SDS011;7003;46.982;15.248;2024-02-21T04:13:39;2.93;;;0.57;;
13866;SDS011;7003;46.982;15.248;2024-02-21T04:16:06;1.53;;;1.43;;
13866;SDS011;7003;46.982;15.248;2024-02-21T04:18:33;3.70;;;0.87;;
13866;SDS011;7003;46.982;15.248;2024-02-21T04:21:04;1.00;;;0.90;;
13866;SDS011;7003;46.982;15.248;2024-02-21T04:23:33;2.13;;;1.20;;
13866;SDS011;7003;46.982;15.248;2024-02-21T04:26:02;4.50;;;1.63;;
13866;SDS011;7003;46.982;15.248;2024-02-21T04:28:29;1.93;;;1.33;;
13866;SDS011;7003;46.982;15.248;2024-02-21T04:30:56;0.33;;;0.33;;
13866;SDS011;7003;46.982;15.248;2024-02-21T04:33:23;1.53;;;1.33;;
13866;SDS011;7003;46.982;15.248;2024-02-21T04:35:51;1.40;;;0.90;;
13866;SDS011;7003;46.982;15.248;2024-02-21T04:38:21;1.20;;;1.10;;
13866;SDS011;7003;46.982;15.248;2024-02-21T04:40:50;5.47;;;2.07;;
13866;SDS011;7003;46.982;15.248;2024-02-21T04:43:18;1.60;;;1.07;;
13866;SDS011;7003;46.982;15.248;2024-02-21T04:45:45;1.37;;;1.27;;
13866;SDS011;7003;46.982;15.248;2024-02-21T04:48:12;3.63;;;1.13;;
13866;SDS011;7003;46.982;15.248;2024-02-21T04:50:39;1.27;;;0.90;;
13866;SDS011;7003;46.982;15.248;2024-02-21T04:53:07;1.47;;;1.00;;
13866;SDS011;7003;46.982;15.248;2024-02-21T04:55:38;0.90;;;0.90;;
13866;SDS011;7003;46.982;15.248;2024-02-21T04:58:06;0.67;;;0.60;;
13866;SDS011;7003;46.982;15.248;2024-02-21T05:00:36;0.70;;;0.70;;
13866;SDS011;7003;46.982;15.248;2024-02-21T05:03:05;0.60;;;0.60;;
13866;SDS011;7003;46.982;15.248;2024-02-21T05:05:32;0.60;;;0.60;;
13866;SDS011;7003;46.982;15.248;2024-02-21T05:08:03;1.03;;;0.70;;
13866;SDS011;7003;46.982;15.248;2024-02-21T05:10:34;6.00;;;1.90;;
13866;SDS011;7003;46.982;15.248;2024-02-21T05:13:05;3.27;;;1.50;;
13866;SDS011;7003;46.982;15.248;2024-02-21T05:15:32;1.90;;;0.90;;
13866;SDS011;7003;46.982;15.248;2024-02-21T05:17:59;0.60;;;0.60;;
13866;SDS011;7003;46.982;15.248;2024-02-21T05:20:29;1.20;;;1.07;;
13866;SDS011;7003;46.982;15.248;2024-02-21T05:22:56;1.50;;;1.10;;
13866;SDS011;7003;46.982;15.248;2024-02-21T05:25:23;1.50;;;1.27;;
13866;SDS011;7003;46.982;15.248;2024-02-21T05:27:50;0.37;;;0.37;;
13866;SDS011;7003;46.982;15.248;2024-02-21T05:30:20;0.83;;;0.83;;
13866;SDS011;7003;46.982;15.248;2024-02-21T05:32:50;0.30;;;0.30;;
13866;SDS011;7003;46.982;15.248;2024-02-21T05:35:17;0.40;;;0.40;;
13866;SDS011;7003;46.982;15.248;2024-02-21T05:37:47;2.00;;;0.70;;
13866;SDS011;7003;46.982;15.248;2024-02-21T05:40:18;1.10;;;0.83;;
13866;SDS011;7003;46.982;15.248;2024-02-21T05:42:47;0.73;;;0.60;;
13866;SDS011;7003;46.982;15.248;2024-02-21T05:45:20;1.80;;;0.73;;
13866;SDS011;7003;46.982;15.248;2024-02-21T05:47:49;0.63;;;0.63;;
13866;SDS011;7003;46.982;15.248;2024-02-21T05:50:20;1.57;;;1.20;;
13866;SDS011;7003;46.982;15.248;2024-02-21T05:52:51;0.20;;;0.20;;
13866;SDS011;7003;46.982;15.248;2024-02-21T05:55:21;0.50;;;0.50;;
13866;SDS011;7003;46.982;15.248;2024-02-21T05:57:54;3.90;;;1.40;;
13866;SDS011;7003;46.982;15.248;2024-02-21T06:00:27;0.80;;;0.80;;
13866;SDS011;7003;46.982;15.248;2024-02-21T06:02:56;1.23;;;1.00;;
13866;SDS011;7003;46.982;15.248;2024-02-21T06:05:29;11.47;;;0.70;;
13866;SDS011;7003;46.982;15.248;2024-02-21T06:08:04;0.60;;;0.60;;
13866;SDS011;7003;46.982;15.248;2024-02-21T06:10:36;4.23;;;1.23;;
13866;SDS011;7003;46.982;15.248;2024-02-21T06:13:06;0.70;;;0.70;;
13866;SDS011;7003;46.982;15.248;2024-02-21T06:15:38;1.33;;;1.03;;
13866;SDS011;7003;46.982;15.248;2024-02-21T06:18:08;2.40;;;1.03;;
13866;SDS011;7003;46.982;15.248;2024-02-21T06:20:36;2.07;;;1.03;;
13866;SDS011;7003;46.982;15.248;2024-02-21T06:23:06;1.10;;;1.10;;
13866;SDS011;7003;46.982;15.248;2024-02-21T06:25:41;1.33;;;1.17;;
13866;SDS011;7003;46.982;15.248;2024-02-21T06:28:12;2.10;;;0.80;;
13866;SDS011;7003;46.982;15.248;2024-02-21T06:30:45;0.37;;;0.37;;
13866;SDS011;7003;46.982;15.248;2024-02-21T06:33:13;9.60;;;0.87;;
13866;SDS011;7003;46.982;15.248;2024-02-21T06:35:42;1.13;;;0.90;;
13866;SDS011;7003;46.982;15.248;2024-02-21T06:38:13;0.50;;;0.50;;
13866;SDS011;7003;46.982;15.248;2024-02-21T06:40:46;0.73;;;0.73;;
13866;SDS011;7003;46.982;15.248;2024-02-21T06:43:18;0.67;;;0.67;;
13866;SDS011;7003;46.982;15.248;2024-02-21T06:45:52;0.80;;;0.80;;
13866;SDS011;7003;46.982;15.248;2024-02-21T06:48:22;0.60;;;0.60;;
13866;SDS011;7003;46.982;15.248;2024-02-21T06:50:52;1.50;;;0.63;;
13866;SDS011;7003;46.982;15.248;2024-02-21T06:53:20;0.93;;;0.53;;
13866;SDS011;7003;46.982;15.248;2024-02-21T06:55:52;1.00;;;0.73;;
13866;SDS011;7003;46.982;15.248;2024-02-21T06:58:20;0.70;;;0.70;;
13866;SDS011;7003;46.982;15.248;2024-02-21T07:00:50;1.60;;;1.50;;
13866;SDS011;7003;46.982;15.248;2024-02-21T07:03:23;1.37;;;1.13;;
13866;SDS011;7003;46.982;15.248;2024-02-21T07:05:51;3.40;;;1.80;;
13866;SDS011;7003;46.982;15.248;2024-02-21T07:08:20;2.33;;;1.57;;
13866;SDS011;7003;46.982;15.248;2024-02-21T07:10:52;0.87;;;0.87;;
13866;SDS011;7003;46.982;15.248;2024-02-21T07:13:23;2.30;;;2.07;;
13866;SDS011;7003;46.982;15.248;2024-02-21T07:15:53;9.37;;;2.23;;
13866;SDS011;7003;46.982;15.248;2024-02-21T07:18:21;5.60;;;3.33;;
13866;SDS011;7003;46.982;15.248;2024-02-21T07:20:51;7.77;;;2.47;;
13866;SDS011;7003;46.982;15.248;2024-02-21T07:23:19;4.27;;;3.20;;
13866;SDS011;7003;46.982;15.248;2024-02-21T07:25:48;7.33;;;3.77;;
13866;SDS011;7003;46.982;15.248;2024-02-21T07:28:16;3.40;;;2.80;;
13866;SDS011;7003;46.982;15.248;2024-02-21T07:30:45;1.43;;;1.10;;
13866;SDS011;7003;46.982;15.248;2024-02-21T07:33:16;5.10;;;2.50;;
13866;SDS011;7003;46.982;15.248;2024-02-21T07:35:45;3.97;;;3.57;;
13866;SDS011;7003;46.982;15.248;2024-02-21T07:38:13;4.57;;;3.03;;
13866;SDS011;7003;46.982;15.248;2024-02-21T07:40:41;10.00;;;5.27;;
13866;SDS011;7003;46.982;15.248;2024-02-21T07:43:10;3.93;;;2.73;;
13866;SDS011;7003;46.982;15.248;2024-02-21T07:45:38;5.97;;;4.80;;
13866;SDS011;7003;46.982;15.248;2024-02-21T07:48:10;8.60;;;6.27;;
13866;SDS011;7003;46.982;15.248;2024-02-21T07:50:40;8.10;;;5.10;;
13866;SDS011;7003;46.982;15.248;2024-02-21T07:53:28;7.47;;;4.90;;
13866;SDS011;7003;46.982;15.248;2024-02-21T07:56:15;3.63;;;3.17;;
13866;SDS011;7003;46.982;15.248;2024-02-21T07:58:45;13.60;;;2.40;;
13866;SDS011;7003;46.982;15.248;2024-02-21T08:01:18;1.60;;;1.50;;
13866;SDS011;7003;46.982;15.248;2024-02-21T08:03:49;6.00;;;2.53;;
13866;SDS011;7003;46.982;15.248;2024-02-21T08:06:22;3.57;;;2.27;;
13866;SDS011;7003;46.982;15.248;2024-02-21T08:08:51;8.07;;;3.97;;
13866;SDS011;7003;46.982;15.248;2024-02-21T08:11:21;4.33;;;2.90;;
13866;SDS011;7003;46.982;15.248;2024-02-21T08:13:50;3.57;;;2.40;;
13866;SDS011;7003;46.982;15.248;2024-02-21T08:16:20;2.83;;;2.00;;
13866;SDS011;7003;46.982;15.248;2024-02-21T08:18:48;2.27;;;1.97;;
13866;SDS011;7003;46.982;15.248;2024-02-21T08:21:20;3.93;;;1.83;;
13866;SDS011;7003;46.982;15.248;2024-02-21T08:23:50;2.20;;;2.00;;
13866;SDS011;7003;46.982;15.248;2024-02-21T08:26:21;2.38;;;2.20;;
13866;SDS011;7003;46.982;15.248;2024-02-21T08:28:58;3.13;;;2.45;;
13866;SDS011;7003;46.982;15.248;2024-02-21T08:31:29;2.70;;;2.35;;
13866;SDS011;7003;46.982;15.248;2024-02-21T08:34:00;2.33;;;1.60;;
13866;SDS011;7003;46.982;15.248;2024-02-21T08:36:32;7.13;;;1.70;;
13866;SDS011;7003;46.982;15.248;2024-02-21T08:39:03;4.30;;;1.80;;
13866;SDS011;7003;46.982;15.248;2024-02-21T08:41:32;1.55;;;1.45;;
13866;SDS011;7003;46.982;15.248;2024-02-21T08:44:01;1.30;;;1.20;;
13866;SDS011;7003;46.982;15.248;2024-02-21T08:46:31;1.23;;;1.15;;
13866;SDS011;7003;46.982;15.248;2024-02-21T08:48:59;6.35;;;2.00;;
13866;SDS011;7003;46.982;15.248;2024-02-21T08:51:31;1.80;;;1.45;;
13866;SDS011;7003;46.982;15.248;2024-02-21T08:54:04;1.30;;;1.05;;
13866;SDS011;7003;46.982;15.248;2024-02-21T08:56:36;1.30;;;1.20;;
13866;SDS011;7003;46.982;15.248;2024-02-21T08:59:05;4.38;;;1.38;;
13866;SDS011;7003;46.982;15.248;2024-02-21T09:01:33;3.13;;;1.80;;
13866;SDS011;7003;46.982;15.248;2024-02-21T09:04:04;2.25;;;1.73;;
13866;SDS011;7003;46.982;15.248;2024-02-21T09:06:37;2.75;;;1.45;;
13866;SDS011;7003;46.982;15.248;2024-02-21T09:09:08;7.25;;;1.33;;
13866;SDS011;7003;46.982;15.248;2024-02-21T09:11:36;1.30;;;1.20;;
13866;SDS011;7003;46.982;15.248;2024-02-21T09:14:07;1.50;;;1.38;;
13866;SDS011;7003;46.982;15.248;2024-02-21T09:16:38;1.90;;;1.60;;
13866;SDS011;7003;46.982;15.248;2024-02-21T09:19:06;2.35;;;1.30;;
13866;SDS011;7003;46.982;15.248;2024-02-21T09:21:41;3.50;;;2.67;;
13866;SDS011;7003;46.982;15.248;2024-02-21T09:24:09;3.13;;;2.55;;
13866;SDS011;7003;46.982;15.248;2024-02-21T09:26:38;1.98;;;1.65;;
13866;SDS011;7003;46.982;15.248;2024-02-21T09:29:09;3.13;;;2.05;;
13866;SDS011;7003;46.982;15.248;2024-02-21T09:31:40;2.83;;;1.58;;
13866;SDS011;7003;46.982;15.248;2024-02-21T09:34:09;1.70;;;1.60;;
13866;SDS011;7003;46.982;15.248;2024-02-21T09:36:42;2.30;;;1.95;;
13866;SDS011;7003;46.982;15.248;2024-02-21T09:39:13;3.78;;;1.33;;
13866;SDS011;7003;46.982;15.248;2024-02-21T09:41:45;1.40;;;1.30;;
13866;SDS011;7003;46.982;15.248;2024-02-21T09:44:18;4.43;;;1.85;;
13866;SDS011;7003;46.982;15.248;2024-02-21T09:46:50;2.22;;;2.03;;
13866;SDS011;7003;46.982;15.248;2024-02-21T09:49:26;3.33;;;1.75;;
13866;SDS011;7003;46.982;15.248;2024-02-21T09:52:02;3.72;;;1.98;;
13866;SDS011;7003;46.982;15.248;2024-02-21T09:54:33;2.70;;;1.67;;
13866;SDS011;7003;46.982;15.248;2024-02-21T09:57:03;3.35;;;1.85;;
13866;SDS011;7003;46.982;15.248;2024-02-21T09:59:32;2.88;;;1.67;;
13866;SDS011;7003;46.982;15.248;2024-02-21T10:02:01;1.60;;;1.48;;
13866;SDS011;7003;46.982;15.248;2024-02-21T10:04:33;2.83;;;1.85;;
13866;SDS011;7003;46.982;15.248;2024-02-21T10:07:05;1.80;;;1.58;;
13866;SDS011;7003;46.982;15.248;2024-02-21T10:09:34;5.43;;;2.08;;
13866;SDS011;7003;46.982;15.248;2024-02-21T10:12:09;2.85;;;1.95;;
13866;SDS011;7003;46.982;15.248;2024-02-21T10:14:41;2.38;;;2.05;;
13866;SDS011;7003;46.982;15.248;2024-02-21T10:17:14;3.30;;;1.80;;
13866;SDS011;7003;46.982;15.248;2024-02-21T10:19:45;1.38;;;1.27;;
13866;SDS011;7003;46.982;15.248;2024-02-21T10:22:15;1.98;;;1.63;;
13866;SDS011;7003;46.982;15.248;2024-02-21T10:24:46;2.55;;;2.20;;
13866;SDS011;7003;46.982;15.248;2024-02-21T10:27:14;2.72;;;1.75;;
13866;SDS011;7003;46.982;15.248;2024-02-21T10:29:48;4.00;;;2.13;;
13866;SDS011;7003;46.982;15.248;2024-02-21T10:32:17;1.65;;;1.48;;
13866;SDS011;7003;46.982;15.248;2024-02-21T10:34:45;1.30;;;1.20;;
13866;SDS011;7003;46.982;15.248;2024-02-21T10:37:19;1.38;;;1.00;;
13866;SDS011;7003;46.982;15.248;2024-02-21T10:39:53;1.65;;;1.35;;
13866;SDS011;7003;46.982;15.248;2024-02-21T10:42:22;1.83;;;1.33;;
13866;SDS011;7003;46.982;15.248;2024-02-21T10:44:56;3.15;;;1.23;;
13866;SDS011;7003;46.982;15.248;2024-02-21T10:47:32;3.67;;;1.02;;
13866;SDS011;7003;46.982;15.248;2024-02-21T10:50:06;2.72;;;1.40;;
13866;SDS011;7003;46.982;15.248;2024-02-21T10:52:46;1.42;;;1.33;;
13866;SDS011;7003;46.982;15.248;2024-02-21T10:55:26;4.03;;;1.70;;
13866;SDS011;7003;46.982;15.248;2024-02-21T10:58:00;2.33;;;2.17;;
13866;SDS011;7003;46.982;15.248;2024-02-21T11:00:30;2.40;;;1.88;;
13866;SDS011;7003;46.982;15.248;2024-02-21T11:03:00;3.10;;;2.15;;
13866;SDS011;7003;46.982;15.248;2024-02-21T11:05:30;2.85;;;1.65;;
13866;SDS011;7003;46.982;15.248;2024-02-21T11:08:02;4.18;;;2.47;;
13866;SDS011;7003;46.982;15.248;2024-02-21T11:10:36;3.30;;;2.13;;
13866;SDS011;7003;46.982;15.248;2024-02-21T11:13:07;2.95;;;1.92;;
13866;SDS011;7003;46.982;15.248;2024-02-21T11:15:39;3.22;;;2.25;;
13866;SDS011;7003;46.982;15.248;2024-02-21T11:18:08;7.05;;;2.40;;
13866;SDS011;7003;46.982;15.248;2024-02-21T11:20:40;2.25;;;1.33;;
13866;SDS011;7003;46.982;15.248;2024-02-21T11:23:25;3.53;;;1.77;;
13866;SDS011;7003;46.982;15.248;2024-02-21T11:26:06;3.13;;;2.22;;
13866;SDS011;7003;46.982;15.248;2024-02-21T11:28:35;5.55;;;2.15;;
13866;SDS011;7003;46.982;15.248;2024-02-21T11:31:07;1.67;;;1.55;;
13866;SDS011;7003;46.982;15.248;2024-02-21T11:33:39;3.05;;;1.42;;
13866;SDS011;7003;46.982;15.248;2024-02-21T11:36:21;2.65;;;1.73;;
13866;SDS011;7003;46.982;15.248;2024-02-21T11:38:54;2.22;;;1.92;;
13866;SDS011;7003;46.982;15.248;2024-02-21T11:41:31;5.00;;;1.92;;
13866;SDS011;7003;46.982;15.248;2024-02-21T11:44:00;2.30;;;1.92;;
13866;SDS011;7003;46.982;15.248;2024-02-21T11:46:30;1.55;;;1.40;;
13866;SDS011;7003;46.982;15.248;2024-02-21T11:49:00;1.77;;;1.27;;
13866;SDS011;7003;46.982;15.248;2024-02-21T11:51:35;1.90;;;1.20;;
13866;SDS011;7003;46.982;15.248;2024-02-21T11:54:08;1.30;;;1.00;;
13866;SDS011;7003;46.982;15.248;2024-02-21T11:56:39;1.30;;;1.08;;
13866;SDS011;7003;46.982;15.248;2024-02-21T11:59:09;1.13;;;1.02;;
13866;SDS011;7003;46.982;15.248;2024-02-21T12:01:39;1.20;;;1.10;;
13866;SDS011;7003;46.982;15.248;2024-02-21T12:04:15;1.95;;;0.90;;
13866;SDS011;7003;46.982;15.248;2024-02-21T12:06:46;0.95;;;0.70;;
13866;SDS011;7003;46.982;15.248;2024-02-21T12:09:28;2.30;;;1.25;;
13866;SDS011;7003;46.982;15.248;2024-02-21T12:12:04;3.40;;;0.82;;
13866;SDS011;7003;46.982;15.248;2024-02-21T12:14:40;10.57;;;1.45;;
13866;SDS011;7003;46.982;15.248;2024-02-21T12:17:10;1.00;;;0.82;;
13866;SDS011;7003;46.982;15.248;2024-02-21T12:19:44;1.75;;;1.15;;
13866;SDS011;7003;46.982;15.248;2024-02-21T12:22:16;2.97;;;0.93;;
13866;SDS011;7003;46.982;15.248;2024-02-21T12:24:52;3.45;;;0.77;;
13866;SDS011;7003;46.982;15.248;2024-02-21T12:27:27;1.95;;;1.17;;
13866;SDS011;7003;46.982;15.248;2024-02-21T12:29:59;2.05;;;0.82;;
13866;SDS011;7003;46.982;15.248;2024-02-21T12:32:37;1.17;;;0.90;;
13866;SDS011;7003;46.982;15.248;2024-02-21T12:35:13;0.75;;;0.73;;
13866;SDS011;7003;46.982;15.248;2024-02-21T12:37:47;0.57;;;0.57;;
13866;SDS011;7003;46.982;15.248;2024-02-21T12:40:19;1.23;;;0.60;;
13866;SDS011;7003;46.982;15.248;2024-02-21T12:42:53;0.80;;;0.47;;
13866;SDS011;7003;46.982;15.248;2024-02-21T12:45:27;0.60;;;0.60;;
13866;SDS011;7003;46.982;15.248;2024-02-21T12:48:02;1.33;;;0.95;;
13866;SDS011;7003;46.982;15.248;2024-02-21T12:50:35;1.02;;;0.93;;
13866;SDS011;7003;46.982;15.248;2024-02-21T12:53:10;1.50;;;0.85;;
13866;SDS011;7003;46.982;15.248;2024-02-21T12:55:45;0.98;;;0.73;;
13866;SDS011;7003;46.982;15.248;2024-02-21T12:58:16;1.08;;;0.98;;
13866;SDS011;7003;46.982;15.248;2024-02-21T13:00:45;0.57;;;0.57;;
13866;SDS011;7003;46.982;15.248;2024-02-21T13:03:20;1.90;;;0.88;;
13866;SDS011;7003;46.982;15.248;2024-02-21T13:05:50;2.83;;;1.60;;
13866;SDS011;7003;46.982;15.248;2024-02-21T13:08:26;0.70;;;0.38;;
13866;SDS011;7003;46.982;15.248;2024-02-21T13:10:59;1.77;;;1.13;;
13866;SDS011;7003;46.982;15.248;2024-02-21T13:13:28;1.42;;;1.20;;
13866;SDS011;7003;46.982;15.248;2024-02-21T13:16:01;0.85;;;0.85;;
13866;SDS011;7003;46.982;15.248;2024-02-21T13:18:34;1.47;;;1.03;;
13866;SDS011;7003;46.982;15.248;2024-02-21T13:21:09;1.58;;;0.82;;
13866;SDS011;7003;46.982;15.248;2024-02-21T13:23:43;1.63;;;0.85;;
13866;SDS011;7003;46.982;15.248;2024-02-21T13:26:18;1.88;;;1.48;;
13866;SDS011;7003;46.982;15.248;2024-02-21T13:28:48;1.55;;;1.13;;
13866;SDS011;7003;46.982;15.248;2024-02-21T13:31:26;1.92;;;1.35;;
13866;SDS011;7003;46.982;15.248;2024-02-21T13:33:55;1.25;;;0.73;;
13866;SDS011;7003;46.982;15.248;2024-02-21T13:36:29;0.57;;;0.57;;
13866;SDS011;7003;46.982;15.248;2024-02-21T13:39:02;1.08;;;0.77;;
13866;SDS011;7003;46.982;15.248;2024-02-21T13:41:37;0.50;;;0.50;;
13866;SDS011;7003;46.982;15.248;2024-02-21T13:44:07;0.60;;;0.43;;
13866;SDS011;7003;46.982;15.248;2024-02-21T13:46:39;1.85;;;0.93;;
13866;SDS011;7003;46.982;15.248;2024-02-21T13:49:10;1.33;;;0.60;;
13866;SDS011;7003;46.982;15.248;2024-02-21T13:51:43;0.80;;;0.77;;
13866;SDS011;7003;46.982;15.248;2024-02-21T13:54:18;4.15;;;0.80;;
13866;SDS011;7003;46.982;15.248;2024-02-21T13:56:53;0.70;;;0.65;;
13866;SDS011;7003;46.982;15.248;2024-02-21T13:59:24;2.10;;;0.90;;
13866;SDS011;7003;46.982;15.248;2024-02-21T14:01:53;0.70;;;0.70;;
13866;SDS011;7003;46.982;15.248;2024-02-21T14:04:26;0.85;;;0.85;;
13866;SDS011;7003;46.982;15.248;2024-02-21T14:06:58;0.77;;;0.77;;
13866;SDS011;7003;46.982;15.248;2024-02-21T14:09:32;0.65;;;0.65;;
13866;SDS011;7003;46.982;15.248;2024-02-21T14:12:08;0.95;;;0.52;;
13866;SDS011;7003;46.982;15.248;2024-02-21T14:14:38;4.55;;;1.73;;
13866;SDS011;7003;46.982;15.248;2024-02-21T14:17:08;1.10;;;0.65;;
13866;SDS011;7003;46.982;15.248;2024-02-21T14:19:38;4.00;;;0.95;;
13866;SDS011;7003;46.982;15.248;2024-02-21T14:22:11;1.58;;;1.30;;
13866;SDS011;7003;46.982;15.248;2024-02-21T14:24:41;4.28;;;1.50;;
13866;SDS011;7003;46.982;15.248;2024-02-21T14:27:13;1.75;;;1.20;;
13866;SDS011;7003;46.982;15.248;2024-02-21T14:29:45;0.90;;;0.90;;
13866;SDS011;7003;46.982;15.248;2024-02-21T14:32:17;0.80;;;0.70;;
13866;SDS011;7003;46.982;15.248;2024-02-21T14:34:48;2.08;;;1.88;;
13866;SDS011;7003;46.982;15.248;2024-02-21T14:37:20;1.48;;;0.82;;
13866;SDS011;7003;46.982;15.248;2024-02-21T14:39:49;7.80;;;1.27;;
13866;SDS011;7003;46.982;15.248;2024-02-21T14:42:25;1.02;;;0.90;;
13866;SDS011;7003;46.982;15.248;2024-02-21T14:44:56;8.73;;;1.70;;
13866;SDS011;7003;46.982;15.248;2024-02-21T14:47:31;1.10;;;0.90;;
13866;SDS011;7003;46.982;15.248;2024-02-21T14:50:05;1.75;;;1.40;;
13866;SDS011;7003;46.982;15.248;2024-02-21T14:52:37;1.27;;;1.17;;
13866;SDS011;7003;46.982;15.248;2024-02-21T14:55:07;5.30;;;1.40;;
13866;SDS011;7003;46.982;15.248;2024-02-21T14:57:44;4.80;;;0.93;;
13866;SDS011;7003;46.982;15.248;2024-02-21T15:00:15;1.25;;;1.00;;
13866;SDS011;7003;46.982;15.248;2024-02-21T15:02:57;1.42;;;1.23;;
13866;SDS011;7003;46.982;15.248;2024-02-21T15:05:36;1.60;;;1.27;;
13866;SDS011;7003;46.982;15.248;2024-02-21T15:08:11;3.17;;;1.95;;